createdAt,value
2022-08-14T00:02:56.243Z,2.95
2022-08-14T00:07:53.884Z,2.33
2022-08-14T00:13:12.804Z,2.33
2022-08-14T00:18:10.039Z,2.53
2022-08-14T00:23:14.492Z,2.10
2022-08-14T00:28:15.145Z,1.92
2022-08-14T00:33:16.046Z,2.28
2022-08-14T00:38:10.197Z,2.42
2022-08-14T00:43:04.184Z,2.33
2022-08-14T00:48:00.106Z,2.63
2022-08-14T00:52:53.652Z,3.40
2022-08-14T00:57:47.286Z,3.03
2022-08-14T01:02:46.201Z,3.43
2022-08-14T01:07:54.126Z,3.13
2022-08-14T01:12:51.029Z,3.05
2022-08-14T01:18:06.323Z,2.90
2022-08-14T01:23:00.595Z,3.33
2022-08-14T01:27:57.567Z,3.63
2022-08-14T01:32:52.722Z,2.90
2022-08-14T01:37:56.061Z,3.15
2022-08-14T01:42:51.408Z,2.97
2022-08-14T01:47:46.935Z,3.25
2022-08-14T01:52:59.174Z,2.95
2022-08-14T01:58:01.435Z,2.50
2022-08-14T02:03:07.958Z,3.67
2022-08-14T02:08:08.883Z,3.72
2022-08-14T02:13:08.916Z,4.10
2022-08-14T02:18:05.234Z,4.57
2022-08-14T02:23:02.441Z,4.68
2022-08-14T02:28:25.515Z,4.25
2022-08-14T02:33:10.773Z,5.45
2022-08-14T02:38:05.971Z,4.43
2022-08-14T02:43:07.881Z,4.72
2022-08-14T02:48:10.663Z,4.03
2022-08-14T02:53:21.208Z,3.25
2022-08-14T02:58:21.404Z,2.50
2022-08-14T03:08:19.918Z,2.17
2022-08-14T03:13:20.975Z,1.85
2022-08-14T03:18:19.951Z,1.80
2022-08-14T03:23:25.398Z,1.95
2022-08-14T03:28:33.005Z,2.10
2022-08-14T03:33:37.924Z,2.20
2022-08-14T03:39:14.763Z,1.67
2022-08-14T03:43:57.067Z,2.10
2022-08-14T03:48:58.107Z,3.58
2022-08-14T03:53:52.148Z,3.00
2022-08-14T03:59:10.495Z,2.42
2022-08-14T04:04:11.695Z,2.47
2022-08-14T04:09:08.018Z,2.42
2022-08-14T04:14:03.315Z,2.53
2022-08-14T04:19:00.084Z,2.58
2022-08-14T04:23:57.229Z,2.05
2022-08-14T04:29:06.864Z,2.25
2022-08-14T04:34:07.821Z,2.10
2022-08-14T04:39:20.905Z,1.77
2022-08-14T04:44:26.606Z,2.38
2022-08-14T04:49:29.910Z,1.95
2022-08-14T04:54:27.833Z,2.22
2022-08-14T04:59:21.565Z,2.00
2022-08-14T05:04:19.695Z,1.75
2022-08-14T05:09:14.624Z,1.83
2022-08-14T05:14:16.931Z,2.00
2022-08-14T05:19:26.780Z,1.67
2022-08-14T05:24:22.842Z,2.05
2022-08-14T05:29:17.846Z,2.00
2022-08-14T05:34:12.883Z,2.50
2022-08-14T05:39:07.416Z,2.40
2022-08-14T05:44:02.963Z,2.58
2022-08-14T05:49:00.142Z,2.25
2022-08-14T05:54:01.668Z,2.23
2022-08-14T05:59:08.086Z,2.10
2022-08-14T06:04:04.425Z,3.10
2022-08-14T06:08:59.891Z,2.20
2022-08-14T06:13:53.786Z,3.05
2022-08-14T06:18:52.661Z,4.18
2022-08-14T06:23:49.101Z,2.95
2022-08-14T06:28:45.566Z,3.17
2022-08-14T06:35:09.354Z,3.70
2022-08-14T06:38:53.263Z,3.20
2022-08-14T06:43:48.468Z,3.53
2022-08-14T06:48:44.023Z,4.93
2022-08-14T06:53:38.927Z,5.03
2022-08-14T06:58:32.501Z,5.13
2022-08-14T07:03:45.111Z,4.97
2022-08-14T07:08:40.468Z,4.68
2022-08-14T07:13:34.165Z,4.85
2022-08-14T07:18:31.201Z,5.28
2022-08-14T07:23:26.263Z,3.58
2022-08-14T07:28:25.944Z,3.38
2022-08-14T07:33:24.924Z,3.17
2022-08-14T07:38:24.939Z,2.70
2022-08-14T07:43:19.634Z,2.80
2022-08-14T07:48:17.074Z,2.88
2022-08-14T07:53:15.342Z,2.50
2022-08-14T07:58:30.664Z,3.92
2022-08-14T08:03:23.627Z,2.90
2022-08-14T08:08:27.055Z,3.15
2022-08-14T08:13:24.462Z,2.75
2022-08-14T08:18:27.444Z,3.28
2022-08-14T08:23:34.373Z,2.42
2022-08-14T08:28:34.417Z,2.53
2022-08-14T08:33:37.243Z,2.30
2022-08-14T08:39:18.226Z,1.77
2022-08-14T08:43:46.683Z,1.80
2022-08-14T08:48:52.124Z,1.73
2022-08-14T08:53:46.296Z,1.70
2022-08-14T08:58:40.372Z,1.50
2022-08-14T09:03:43.957Z,1.20
2022-08-14T09:08:38.932Z,1.88
2022-08-14T09:13:33.170Z,1.20
2022-08-14T09:18:30.900Z,1.17
2022-08-14T09:23:34.484Z,1.45
2022-08-14T09:28:37.744Z,1.25
2022-08-14T09:33:56.512Z,1.15
2022-08-14T09:39:14.891Z,2.35
2022-08-14T09:44:51.570Z,0.90
2022-08-14T09:49:52.230Z,0.93
2022-08-14T09:54:48.639Z,1.00
2022-08-14T10:00:03.666Z,0.98
2022-08-14T10:05:11.982Z,0.90
2022-08-14T10:10:16.517Z,1.00
2022-08-14T10:15:26.039Z,0.88
2022-08-14T10:26:06.102Z,1.08
2022-08-14T10:31:16.596Z,1.30
2022-08-14T10:36:35.043Z,1.05
2022-08-14T10:41:48.632Z,0.85
2022-08-14T10:47:39.435Z,0.90
2022-08-14T10:52:21.976Z,1.30
2022-08-14T10:57:19.637Z,1.00
2022-08-14T11:02:44.704Z,0.90
2022-08-14T11:07:57.051Z,0.90
2022-08-14T11:12:57.492Z,0.80
2022-08-14T11:17:53.012Z,1.33
2022-08-14T11:22:56.651Z,0.80
2022-08-14T11:27:56.405Z,0.90
2022-08-14T11:32:52.469Z,0.98
2022-08-14T11:38:04.759Z,1.08
2022-08-14T11:43:00.281Z,0.70
2022-08-14T11:48:10.750Z,0.80
2022-08-14T11:53:10.999Z,0.80
2022-08-14T11:58:11.738Z,0.95
2022-08-14T12:03:06.563Z,1.00
2022-08-14T12:08:04.147Z,0.73
2022-08-14T12:13:01.040Z,0.73
2022-08-14T12:17:55.817Z,1.10
2022-08-14T12:27:53.428Z,0.60
2022-08-14T12:32:48.377Z,0.80
2022-08-14T12:37:51.912Z,0.75
2022-08-14T12:42:47.552Z,0.82
2022-08-14T12:47:47.860Z,0.77
2022-08-14T12:52:58.769Z,0.82
2022-08-14T12:57:59.897Z,1.13
2022-08-14T13:02:55.814Z,0.98
2022-08-14T13:07:52.468Z,0.80
2022-08-14T13:13:03.332Z,0.75
2022-08-14T13:18:04.438Z,1.00
2022-08-14T13:23:00.098Z,0.93
2022-08-14T13:28:29.899Z,0.90
2022-08-14T13:33:28.303Z,1.00
2022-08-14T13:38:22.572Z,0.90
2022-08-14T13:43:16.210Z,1.02
2022-08-14T13:48:28.457Z,0.88
2022-08-14T13:53:25.394Z,0.80
2022-08-14T13:58:30.018Z,0.73
2022-08-14T14:03:30.379Z,1.00
2022-08-14T14:08:46.905Z,0.90
2022-08-14T14:13:41.854Z,0.90
2022-08-14T14:18:42.352Z,0.80
2022-08-14T14:23:36.495Z,0.77
2022-08-14T14:28:32.785Z,0.70
2022-08-14T14:33:47.529Z,1.20
2022-08-14T14:38:45.144Z,0.80
2022-08-14T14:43:45.339Z,1.10
2022-08-14T14:48:46.502Z,0.90
2022-08-14T14:53:42.039Z,0.98
2022-08-14T14:58:37.651Z,1.10
2022-08-14T15:03:32.246Z,1.43
2022-08-14T15:08:56.875Z,0.97
2022-08-14T15:13:43.039Z,1.10
2022-08-14T15:18:41.910Z,1.10
2022-08-14T15:23:44.391Z,1.05
2022-08-14T15:28:43.924Z,1.30
2022-08-14T15:34:13.232Z,1.10
2022-08-14T15:39:14.164Z,1.48
2022-08-14T15:44:08.223Z,1.00
2022-08-14T15:49:19.967Z,1.10
2022-08-14T15:54:18.163Z,1.10
2022-08-14T15:59:18.064Z,1.20
2022-08-14T16:04:12.604Z,1.30
2022-08-14T16:09:11.521Z,1.23
2022-08-14T16:14:07.077Z,1.67
2022-08-14T16:19:01.236Z,1.10
2022-08-14T16:23:55.477Z,2.45
2022-08-14T16:28:56.236Z,1.10
2022-08-14T16:33:58.802Z,1.33
2022-08-14T16:39:00.040Z,1.88
2022-08-14T16:44:01.753Z,1.38
2022-08-14T16:48:58.370Z,2.03
2022-08-14T16:58:50.553Z,1.40
2022-08-14T17:04:09.461Z,1.50
2022-08-14T17:09:24.313Z,1.60
2022-08-14T17:14:22.391Z,1.30
2022-08-14T17:19:20.051Z,1.48
2022-08-14T17:24:57.040Z,1.90
2022-08-14T17:29:31.179Z,1.60
2022-08-14T17:34:27.029Z,1.50
2022-08-14T17:39:25.036Z,1.70
2022-08-14T17:44:45.199Z,1.95
2022-08-14T17:49:47.486Z,1.90
2022-08-14T17:54:52.481Z,1.55
2022-08-14T17:59:49.893Z,2.90
2022-08-14T18:04:47.960Z,1.88
2022-08-14T18:09:49.832Z,1.70
2022-08-14T18:14:52.634Z,1.67
2022-08-14T18:19:47.285Z,1.77
2022-08-14T18:24:42.708Z,1.75
2022-08-14T18:29:44.599Z,1.77
2022-08-14T18:34:51.099Z,2.40
2022-08-14T18:40:02.101Z,2.45
2022-08-14T18:44:59.443Z,2.13
2022-08-14T18:50:01.385Z,2.10
2022-08-14T18:54:59.594Z,2.40
2022-08-14T18:59:54.071Z,2.55
2022-08-14T19:04:52.344Z,2.10
2022-08-14T19:10:15.129Z,2.22
2022-08-14T19:15:27.264Z,2.25
2022-08-14T19:20:23.028Z,2.70
2022-08-14T19:25:48.959Z,2.88
2022-08-14T19:30:48.688Z,2.55
2022-08-14T19:35:55.746Z,2.42
2022-08-14T19:40:54.415Z,3.08
2022-08-14T19:45:56.408Z,2.33
2022-08-14T19:50:50.133Z,2.40
2022-08-14T19:55:46.011Z,2.15
2022-08-14T20:00:51.681Z,2.25
2022-08-14T20:05:48.536Z,2.30
2022-08-14T20:11:08.059Z,2.72
2022-08-14T20:16:12.673Z,2.42
2022-08-14T20:21:08.440Z,2.20
2022-08-14T20:26:03.126Z,2.30
2022-08-14T20:31:17.871Z,2.28
2022-08-14T20:36:25.966Z,2.30
2022-08-14T20:41:25.635Z,2.70
2022-08-14T20:46:30.516Z,2.30
2022-08-14T20:51:54.940Z,2.30
2022-08-14T20:56:54.056Z,2.78
2022-08-14T21:02:28.457Z,2.80
2022-08-14T21:07:50.433Z,2.60
2022-08-14T21:13:25.808Z,2.60
2022-08-14T21:17:56.258Z,3.20
2022-08-14T21:22:49.486Z,2.90
2022-08-14T21:27:42.390Z,2.55
2022-08-14T21:32:58.200Z,2.33
2022-08-14T21:37:52.755Z,2.40
2022-08-14T21:42:46.559Z,2.55
2022-08-14T21:47:43.244Z,3.22
2022-08-14T21:52:49.309Z,2.40
2022-08-14T21:58:44.691Z,2.63
2022-08-14T22:03:00.503Z,3.20
2022-08-14T22:07:55.988Z,2.90
2022-08-14T22:13:00.865Z,3.15
2022-08-14T22:17:55.438Z,3.42
2022-08-14T22:22:55.758Z,2.90
2022-08-14T22:27:55.929Z,3.30
2022-08-14T22:32:57.866Z,3.38
2022-08-14T22:38:36.057Z,2.55
2022-08-14T22:43:10.064Z,4.35
2022-08-14T22:48:05.637Z,4.07
2022-08-14T22:53:07.002Z,3.10
2022-08-14T22:58:03.604Z,3.45
2022-08-14T23:03:03.196Z,2.78
2022-08-14T23:08:57.901Z,2.95
2022-08-14T23:13:17.393Z,2.30
2022-08-14T23:18:13.974Z,2.70
2022-08-14T23:23:22.674Z,3.20
2022-08-14T23:28:33.690Z,2.92
2022-08-14T23:33:33.616Z,2.95
2022-08-14T23:38:31.074Z,2.92
2022-08-14T23:43:25.913Z,3.38
2022-08-14T23:48:28.158Z,3.00
2022-08-14T23:53:47.342Z,2.65
2022-08-14T23:58:40.245Z,2.63
